Time;durP1;ratioP1;P1;durP2;ratioP2;P2;SDS_P1;SDS_P2;PMS_P1;PMS_P2;Temp;Humidity;BMP_temperature;BMP_pressure;BME280_temperature;BME280_humidity;BME280_pressure;Samples;Min_cycle;Max_cycle;Signal;HPM_P1;HPM_P2
2021/06/28 00:01:39;;;;;;;6.97;5.37;;;20.10;99.90;;;;;;5040478;28;20544;-73
2021/06/28 00:04:06;;;;;;;7.70;6.27;;;20.00;99.90;;;;;;5044666;28;20479;-74
2021/06/28 00:06:33;;;;;;;9.90;7.27;;;20.10;99.90;;;;;;5046077;28;20861;-73
2021/06/28 00:09:00;;;;;;;6.30;5.70;;;20.20;99.90;;;;;;5042631;28;20554;-73
2021/06/28 00:11:28;;;;;;;8.07;5.57;;;20.30;99.90;;;;;;5051913;28;20451;-74
2021/06/28 00:13:55;;;;;;;6.63;5.40;;;20.30;99.90;;;;;;5051788;28;20496;-73
2021/06/28 00:16:24;;;;;;;7.20;6.20;;;20.20;99.90;;;;;;5048593;28;20483;-73
2021/06/28 00:18:51;;;;;;;8.33;6.60;;;20.30;99.90;;;;;;5046022;28;20566;-74
2021/06/28 00:21:19;;;;;;;7.57;6.13;;;20.40;99.90;;;;;;5038130;28;20517;-73
2021/06/28 00:23:46;;;;;;;9.00;6.80;;;20.50;99.90;;;;;;5037081;28;20482;-73
2021/06/28 00:26:13;;;;;;;7.77;6.20;;;20.60;99.90;;;;;;5042326;28;20488;-74
2021/06/28 00:28:41;;;;;;;5.87;5.17;;;20.60;99.90;;;;;;5037174;28;20933;-73
2021/06/28 00:31:09;;;;;;;7.73;6.23;;;20.30;99.90;;;;;;5039120;28;20550;-73
2021/06/28 00:33:36;;;;;;;7.97;6.43;;;20.00;99.90;;;;;;5037600;28;20966;-72
2021/06/28 00:36:04;;;;;;;7.10;5.47;;;19.80;99.90;;;;;;5039926;28;20479;-72
2021/06/28 00:38:31;;;;;;;9.50;6.50;;;19.70;99.90;;;;;;5040096;28;20561;-73
2021/06/28 00:40:58;;;;;;;8.87;6.50;;;19.70;99.90;;;;;;5042332;28;20490;-73
2021/06/28 00:43:25;;;;;;;9.77;5.90;;;19.80;99.90;;;;;;5048733;28;20952;-73
2021/06/28 00:45:53;;;;;;;8.93;7.50;;;19.80;99.90;;;;;;5056945;28;20524;-73
2021/06/28 00:48:21;;;;;;;9.30;6.73;;;20.00;99.90;;;;;;5052579;28;20544;-73
2021/06/28 00:50:50;;;;;;;10.90;7.20;;;20.00;99.90;;;;;;5052682;28;20478;-71
2021/06/28 00:53:19;;;;;;;8.63;6.87;;;20.10;99.90;;;;;;5054442;28;21030;-72
2021/06/28 00:55:46;;;;;;;8.47;6.17;;;20.10;99.90;;;;;;5050430;28;20471;-72
2021/06/28 00:58:14;;;;;;;9.33;6.77;;;20.10;99.90;;;;;;5058919;28;20451;-73
2021/06/28 01:00:42;;;;;;;9.93;7.07;;;20.00;99.90;;;;;;5049859;28;20498;-73
2021/06/28 01:03:12;;;;;;;8.20;6.07;;;20.00;99.90;;;;;;5048412;28;20884;-73
2021/06/28 01:05:41;;;;;;;8.70;7.80;;;19.90;99.90;;;;;;5051950;28;20447;-73
2021/06/28 01:08:08;;;;;;;9.50;7.30;;;19.90;99.90;;;;;;5045359;28;20864;-71
2021/06/28 01:10:37;;;;;;;7.70;6.10;;;19.80;99.90;;;;;;5053530;28;20881;-74
2021/06/28 01:13:04;;;;;;;9.30;6.93;;;19.70;99.90;;;;;;5056718;28;20447;-73
2021/06/28 01:15:31;;;;;;;9.00;6.83;;;19.60;99.90;;;;;;5054051;28;20475;-73
2021/06/28 01:17:59;;;;;;;8.43;6.17;;;19.60;99.90;;;;;;5057200;28;20539;-74
2021/06/28 01:20:29;;;;;;;8.60;6.57;;;19.50;99.90;;;;;;5054199;28;20483;-73
2021/06/28 01:22:58;;;;;;;9.13;7.00;;;19.50;99.90;;;;;;5044268;28;20450;-70
2021/06/28 01:25:28;;;;;;;8.83;6.40;;;19.60;99.90;;;;;;5048988;28;20457;-71
2021/06/28 01:27:56;;;;;;;10.20;8.03;;;19.70;99.90;;;;;;5053147;28;20542;-70
2021/06/28 01:30:29;;;;;;;12.40;8.43;;;19.70;99.90;;;;;;5051458;28;20479;-73
2021/06/28 01:32:56;;;;;;;8.93;7.67;;;19.70;99.90;;;;;;5051627;28;20459;-73
2021/06/28 01:35:24;;;;;;;8.30;6.53;;;19.70;99.90;;;;;;5050645;28;20546;-72
2021/06/28 01:37:51;;;;;;;9.37;6.90;;;19.70;99.90;;;;;;5054027;28;20459;-73
2021/06/28 01:40:18;;;;;;;8.80;7.70;;;19.70;99.90;;;;;;5048904;28;20986;-73
2021/06/28 01:42:48;;;;;;;13.63;7.90;;;19.70;99.90;;;;;;5060319;28;20504;-73
2021/06/28 01:45:19;;;;;;;10.57;7.30;;;19.80;99.90;;;;;;5048941;28;20543;-73
2021/06/28 01:47:47;;;;;;;10.00;8.10;;;19.90;99.90;;;;;;5054021;28;20439;-73
2021/06/28 01:50:16;;;;;;;8.90;6.67;;;19.80;99.90;;;;;;5052306;28;20507;-70
2021/06/28 01:52:43;;;;;;;9.20;8.07;;;19.90;99.90;;;;;;5050292;28;20528;-71
2021/06/28 01:55:13;;;;;;;8.10;6.87;;;19.90;99.90;;;;;;5051765;28;20452;-73
2021/06/28 01:57:42;;;;;;;6.57;5.97;;;19.90;99.90;;;;;;5049589;28;20448;-73
2021/06/28 02:00:13;;;;;;;10.20;7.33;;;19.80;99.90;;;;;;5050550;28;20694;-72
2021/06/28 02:02:41;;;;;;;14.30;9.20;;;19.70;99.90;;;;;;5049830;28;20502;-72
2021/06/28 02:05:09;;;;;;;11.43;7.80;;;19.70;99.90;;;;;;5049400;28;20469;-71
2021/06/28 02:07:36;;;;;;;8.17;7.10;;;19.80;99.90;;;;;;5048631;28;20534;-72
2021/06/28 02:10:05;;;;;;;11.63;8.20;;;19.70;99.90;;;;;;5048223;28;20547;-72
2021/06/28 02:12:32;;;;;;;12.10;8.03;;;19.70;99.90;;;;;;5047038;28;20999;-73
2021/06/28 02:14:58;;;;;;;9.50;7.60;;;19.70;99.90;;;;;;5053734;28;20535;-73
2021/06/28 02:17:27;;;;;;;11.30;8.03;;;19.70;99.90;;;;;;5050256;28;20534;-73
2021/06/28 02:19:54;;;;;;;13.07;8.83;;;19.70;99.90;;;;;;5058978;28;20482;-71
2021/06/28 02:22:21;;;;;;;14.50;9.10;;;19.70;99.90;;;;;;5045719;28;20458;-72
2021/06/28 02:24:48;;;;;;;11.07;8.37;;;19.50;99.90;;;;;;5053351;28;20526;-73
2021/06/28 02:27:14;;;;;;;10.17;8.50;;;19.30;99.90;;;;;;5055455;28;20475;-73
2021/06/28 02:29:41;;;;;;;13.03;8.90;;;19.40;99.90;;;;;;5040396;28;20570;-73
2021/06/28 02:32:09;;;;;;;10.33;8.33;;;19.40;99.90;;;;;;5043328;28;20925;-73
2021/06/28 02:34:38;;;;;;;13.13;9.87;;;19.30;99.90;;;;;;5051213;28;20460;-72
2021/06/28 02:37:05;;;;;;;8.93;7.93;;;19.30;99.90;;;;;;5048535;28;20491;-73
2021/06/28 02:39:32;;;;;;;11.60;8.50;;;19.20;99.90;;;;;;5044940;28;20810;-73
2021/06/28 02:41:59;;;;;;;15.57;9.50;;;19.10;99.90;;;;;;5042856;28;22897;-73
2021/06/28 02:44:26;;;;;;;11.37;7.87;;;19.30;99.90;;;;;;5051858;28;20537;-73
2021/06/28 02:46:54;;;;;;;11.33;7.77;;;19.30;99.90;;;;;;5042245;28;20897;-73
2021/06/28 02:49:21;;;;;;;11.77;8.17;;;19.30;99.90;;;;;;5046407;28;20482;-72
2021/06/28 02:51:49;;;;;;;12.40;8.30;;;19.30;99.90;;;;;;5039380;28;20837;-73
2021/06/28 02:54:17;;;;;;;15.67;11.10;;;19.20;99.90;;;;;;5049322;28;20452;-72
2021/06/28 02:56:44;;;;;;;12.57;9.63;;;19.20;99.90;;;;;;5048555;28;20650;-72
2021/06/28 02:59:12;;;;;;;13.10;8.87;;;19.30;99.90;;;;;;5038833;28;20617;-70
2021/06/28 03:01:40;;;;;;;10.93;8.57;;;19.40;99.90;;;;;;5049963;28;21026;-73
2021/06/28 03:04:07;;;;;;;12.07;9.13;;;19.40;99.90;;;;;;5051102;28;21034;-73
2021/06/28 03:06:34;;;;;;;12.80;8.67;;;19.40;99.90;;;;;;5045845;28;20504;-72
2021/06/28 03:09:02;;;;;;;14.07;9.57;;;19.40;99.90;;;;;;5047630;28;20525;-71
2021/06/28 03:11:29;;;;;;;11.80;9.00;;;19.40;99.90;;;;;;5049671;28;21022;-73
2021/06/28 03:13:56;;;;;;;11.10;7.93;;;19.40;99.90;;;;;;5049263;28;20465;-73
2021/06/28 03:16:23;;;;;;;10.80;8.80;;;19.50;99.90;;;;;;5047531;28;20869;-73
2021/06/28 03:18:50;;;;;;;11.10;8.17;;;19.40;99.90;;;;;;5050558;28;20479;-73
2021/06/28 03:21:17;;;;;;;12.50;7.13;;;19.40;99.90;;;;;;5050002;28;20535;-73
2021/06/28 03:23:45;;;;;;;13.40;8.73;;;19.30;99.90;;;;;;5049764;28;20545;-73
2021/06/28 03:26:14;;;;;;;14.33;9.53;;;19.30;99.90;;;;;;5052374;28;20442;-73
2021/06/28 03:28:41;;;;;;;15.73;8.83;;;19.30;99.90;;;;;;5040363;28;20490;-72
2021/06/28 03:31:10;;;;;;;9.63;7.90;;;19.30;99.90;;;;;;5039446;28;20488;-73
2021/06/28 03:33:38;;;;;;;11.10;8.17;;;19.30;99.90;;;;;;5041309;28;21337;-70
2021/06/28 03:36:06;;;;;;;12.77;7.90;;;19.10;99.90;;;;;;5040560;28;20565;-72
2021/06/28 03:38:33;;;;;;;17.40;9.30;;;18.70;99.90;;;;;;5033257;28;20542;-71
2021/06/28 03:41:00;;;;;;;12.13;7.97;;;18.70;99.90;;;;;;5045439;28;20839;-69
2021/06/28 03:43:29;;;;;;;11.90;7.63;;;18.90;99.90;;;;;;5052128;28;20539;-71
2021/06/28 03:45:56;;;;;;;12.53;7.67;;;19.00;99.90;;;;;;5049838;28;20564;-71
2021/06/28 03:48:22;;;;;;;9.50;7.73;;;19.10;99.90;;;;;;5056289;28;20485;-71
2021/06/28 03:50:52;;;;;;;10.10;7.50;;;19.10;99.90;;;;;;5058325;28;20578;-72
2021/06/28 03:53:20;;;;;;;11.30;7.47;;;19.10;99.90;;;;;;5053422;28;20473;-72
2021/06/28 03:55:47;;;;;;;11.47;7.60;;;19.00;99.90;;;;;;5054994;28;20489;-72
2021/06/28 03:58:14;;;;;;;10.20;7.73;;;18.80;99.90;;;;;;5058768;28;20462;-71
2021/06/28 04:00:42;;;;;;;11.30;7.00;;;18.50;99.90;;;;;;5061890;28;20528;-71
2021/06/28 04:03:09;;;;;;;9.60;7.87;;;18.40;99.90;;;;;;5064746;28;20501;-71
2021/06/28 04:05:36;;;;;;;11.23;7.30;;;18.50;99.90;;;;;;5059007;28;20466;-71
2021/06/28 04:08:03;;;;;;;9.10;7.20;;;18.70;99.90;;;;;;5052767;28;20463;-72
2021/06/28 04:10:30;;;;;;;13.80;8.13;;;18.80;99.90;;;;;;5054963;28;20529;-71
2021/06/28 04:12:58;;;;;;;10.00;7.73;;;18.90;99.90;;;;;;5055133;28;20539;-72
2021/06/28 04:15:25;;;;;;;11.37;8.17;;;19.00;99.90;;;;;;5058782;28;20478;-72
2021/06/28 04:17:55;;;;;;;10.30;9.30;;;19.10;99.90;;;;;;5055973;28;20751;-71
2021/06/28 04:20:23;;;;;;;13.00;7.60;;;19.20;99.90;;;;;;5050533;28;20964;-72
2021/06/28 04:22:52;;;;;;;10.73;9.40;;;19.20;99.90;;;;;;5048131;28;20495;-73
2021/06/28 04:25:21;;;;;;;12.33;8.97;;;19.20;99.90;;;;;;5050250;28;20501;-72
2021/06/28 04:27:49;;;;;;;10.20;8.03;;;19.20;99.90;;;;;;5055610;28;20493;-73
2021/06/28 04:30:18;;;;;;;9.70;7.83;;;19.20;99.90;;;;;;5059043;28;20685;-73
2021/06/28 04:32:46;;;;;;;9.77;7.63;;;19.20;99.90;;;;;;5055709;28;21004;-73
2021/06/28 04:35:17;;;;;;;11.30;7.70;;;19.30;99.90;;;;;;5055719;28;20463;-72
2021/06/28 04:37:44;;;;;;;12.73;8.83;;;19.40;99.90;;;;;;5057777;28;20547;-72
2021/06/28 04:40:13;;;;;;;15.07;8.37;;;19.40;99.90;;;;;;5055845;28;20935;-72
2021/06/28 04:42:40;;;;;;;14.73;9.20;;;19.40;99.90;;;;;;5041441;28;20469;-73
2021/06/28 04:45:08;;;;;;;16.40;9.30;;;19.50;99.90;;;;;;5048453;28;20538;-72
2021/06/28 04:47:35;;;;;;;11.40;8.17;;;19.60;99.90;;;;;;5043508;28;20459;-72
2021/06/28 04:50:03;;;;;;;9.43;7.90;;;19.70;99.90;;;;;;5050217;28;20498;-73
2021/06/28 04:52:32;;;;;;;10.23;7.73;;;19.80;99.90;;;;;;5059313;28;20456;-73
2021/06/28 04:55:00;;;;;;;10.50;7.47;;;19.90;99.90;;;;;;5052130;28;20451;-73
2021/06/28 04:57:28;;;;;;;12.60;7.57;;;20.00;99.90;;;;;;5059319;28;20451;-73
2021/06/28 04:59:55;;;;;;;10.43;8.43;;;20.10;99.90;;;;;;5055408;28;20614;-73
2021/06/28 05:02:22;;;;;;;12.77;8.77;;;20.10;99.90;;;;;;5052263;28;20564;-72
2021/06/28 05:04:49;;;;;;;10.53;8.53;;;20.20;99.90;;;;;;5058369;28;20443;-73
2021/06/28 05:07:16;;;;;;;10.67;8.40;;;20.30;99.90;;;;;;5051660;28;20462;-73
2021/06/28 05:09:45;;;;;;;10.80;8.50;;;20.40;99.90;;;;;;5050383;28;20517;-73
2021/06/28 05:12:14;;;;;;;10.00;7.67;;;20.50;99.90;;;;;;5054223;28;20460;-73
2021/06/28 05:14:41;;;;;;;12.30;8.60;;;20.70;99.90;;;;;;5054764;28;20460;-73
2021/06/28 05:17:09;;;;;;;16.63;8.67;;;20.70;99.90;;;;;;5055036;28;20471;-73
2021/06/28 05:19:36;;;;;;;6.67;5.73;;;20.80;99.90;;;;;;5054271;28;20877;-73
2021/06/28 05:22:04;;;;;;;8.97;7.90;;;20.80;99.90;;;;;;5055569;28;20574;-73
2021/06/28 05:24:31;;;;;;;9.10;8.20;;;21.00;99.90;;;;;;5055472;28;20469;-72
2021/06/28 05:26:59;;;;;;;8.00;6.97;;;21.40;99.90;;;;;;5056634;28;21036;-73
2021/06/28 05:29:26;;;;;;;8.73;6.50;;;21.70;99.90;;;;;;5053936;28;20486;-72
2021/06/28 05:31:53;;;;;;;8.73;6.33;;;22.00;99.90;;;;;;5057405;28;20516;-73
2021/06/28 05:34:20;;;;;;;8.63;7.53;;;22.40;99.90;;;;;;5056408;28;20582;-73
2021/06/28 05:36:47;;;;;;;10.00;6.37;;;22.60;99.90;;;;;;5055038;28;21145;-73
2021/06/28 05:39:15;;;;;;;8.07;6.50;;;22.60;99.90;;;;;;5055369;28;21247;-72
2021/06/28 05:41:42;;;;;;;10.17;6.30;;;22.90;99.90;;;;;;5054372;28;20870;-76
2021/06/28 05:44:10;;;;;;;9.80;6.60;;;23.30;99.90;;;;;;5052166;28;20471;-75
2021/06/28 05:46:37;;;;;;;14.40;7.33;;;23.40;99.90;;;;;;5053485;28;20917;-75
2021/06/28 05:49:04;;;;;;;8.97;6.10;;;23.50;99.90;;;;;;5051957;28;20515;-74
2021/06/28 05:51:31;;;;;;;10.60;7.40;;;23.70;99.90;;;;;;5054251;28;20752;-74
2021/06/28 05:53:58;;;;;;;11.13;7.17;;;24.10;99.90;;;;;;5052615;28;20456;-74
2021/06/28 05:56:25;;;;;;;6.80;5.83;;;24.50;99.90;;;;;;5059506;28;20507;-73
2021/06/28 05:58:52;;;;;;;10.13;6.30;;;24.20;99.90;;;;;;5056160;28;20476;-74
2021/06/28 06:01:21;;;;;;;13.10;6.30;;;24.60;99.90;;;;;;5055346;28;20570;-74
2021/06/28 06:03:48;;;;;;;6.40;5.70;;;25.10;99.90;;;;;;5057563;28;20485;-74
2021/06/28 06:06:14;;;;;;;9.90;6.80;;;24.70;99.90;;;;;;5055097;28;20894;-73
2021/06/28 06:08:41;;;;;;;8.60;6.20;;;24.50;99.90;;;;;;5052891;28;20535;-73
2021/06/28 06:11:09;;;;;;;9.07;6.60;;;24.00;99.90;;;;;;5055477;28;20451;-74
2021/06/28 06:13:36;;;;;;;7.47;6.70;;;24.00;99.90;;;;;;5055260;28;20502;-73
2021/06/28 06:16:03;;;;;;;9.10;7.77;;;23.90;99.90;;;;;;5053882;28;20471;-73
2021/06/28 06:18:31;;;;;;;9.70;6.67;;;23.90;99.90;;;;;;5058931;28;20452;-76
2021/06/28 06:20:58;;;;;;;11.47;6.83;;;24.00;99.90;;;;;;5053716;28;20482;-75
2021/06/28 06:23:25;;;;;;;7.33;6.07;;;24.50;99.90;;;;;;5057316;28;21132;-74
2021/06/28 06:25:52;;;;;;;10.07;6.37;;;24.60;99.90;;;;;;5053255;28;20999;-74
2021/06/28 06:28:19;;;;;;;12.47;6.47;;;24.80;99.90;;;;;;5054790;28;20459;-74
2021/06/28 06:30:46;;;;;;;8.30;6.40;;;25.00;99.90;;;;;;5053932;28;20475;-75
2021/06/28 06:33:13;;;;;;;8.00;7.13;;;25.50;99.90;;;;;;5053404;28;20501;-75
2021/06/28 06:35:42;;;;;;;7.67;6.73;;;26.00;99.90;;;;;;5057693;28;20444;-75
2021/06/28 06:38:11;;;;;;;11.10;6.57;;;26.20;99.90;;;;;;5056406;28;20543;-75
2021/06/28 06:40:38;;;;;;;9.13;6.40;;;26.40;99.90;;;;;;5053112;28;20489;-73
2021/06/28 06:43:05;;;;;;;11.67;7.10;;;26.80;99.90;;;;;;5054266;28;20601;-75
2021/06/28 06:45:32;;;;;;;9.73;5.90;;;27.10;99.90;;;;;;5056315;28;20451;-75
2021/06/28 06:47:59;;;;;;;7.33;5.90;;;27.70;99.90;;;;;;5052172;28;20559;-75
2021/06/28 06:50:27;;;;;;;10.33;6.33;;;27.80;99.90;;;;;;5047729;28;20571;-74
2021/06/28 06:52:55;;;;;;;8.73;7.10;;;27.80;99.90;;;;;;5049805;28;20539;-74
2021/06/28 06:55:22;;;;;;;7.10;6.40;;;27.80;99.90;;;;;;5055916;28;20838;-74
2021/06/28 06:57:49;;;;;;;11.90;7.17;;;28.50;99.90;;;;;;5051552;28;20475;-75
2021/06/28 07:00:19;;;;;;;6.13;5.60;;;28.80;99.90;;;;;;5052627;28;20789;-75
2021/06/28 07:02:46;;;;;;;7.97;6.23;;;29.40;99.90;;;;;;5053018;28;20479;-75
2021/06/28 07:05:14;;;;;;;8.70;6.43;;;29.10;99.90;;;;;;5052614;28;20547;-75
2021/06/28 07:07:41;;;;;;;7.63;6.67;;;29.30;99.90;;;;;;5055246;28;20474;-73
2021/06/28 07:10:11;;;;;;;9.30;7.33;;;29.20;99.90;;;;;;5050623;28;20991;-75
2021/06/28 07:12:39;;;;;;;7.47;6.40;;;28.60;99.90;;;;;;5053342;28;20432;-76
2021/06/28 07:15:09;;;;;;;9.23;7.60;;;28.90;99.90;;;;;;5056713;28;20922;-75
2021/06/28 07:17:36;;;;;;;6.77;5.80;;;29.10;99.90;;;;;;5056293;28;20851;-75
2021/06/28 07:20:03;;;;;;;9.57;6.73;;;29.10;99.90;;;;;;5055770;28;20535;-75
2021/06/28 07:22:30;;;;;;;6.93;6.27;;;29.40;99.90;;;;;;5058015;28;20479;-76
2021/06/28 07:24:57;;;;;;;13.10;6.97;;;30.00;99.90;;;;;;5049156;28;20801;-75
2021/06/28 07:27:26;;;;;;;6.57;5.97;;;30.30;99.90;;;;;;5056723;28;20537;-73
2021/06/28 07:29:53;;;;;;;7.30;6.60;;;30.40;99.90;;;;;;5056402;28;20630;-77
2021/06/28 07:32:20;;;;;;;6.50;5.90;;;30.20;99.90;;;;;;5056602;28;20510;-75
2021/06/28 07:34:47;;;;;;;7.20;6.50;;;30.30;99.90;;;;;;5055687;28;20556;-74
2021/06/28 07:37:14;;;;;;;7.93;7.00;;;30.90;99.90;;;;;;5054894;28;20496;-74
2021/06/28 07:39:41;;;;;;;7.63;6.83;;;30.60;99.90;;;;;;5053659;28;20569;-75
2021/06/28 07:42:08;;;;;;;8.70;7.80;;;30.20;99.90;;;;;;5053134;28;20515;-74
2021/06/28 07:44:37;;;;;;;10.60;7.90;;;30.00;99.90;;;;;;5057915;28;20542;-76
2021/06/28 07:47:04;;;;;;;8.17;7.10;;;29.60;99.90;;;;;;5054246;28;20444;-75
2021/06/28 07:49:31;;;;;;;8.23;7.43;;;29.00;99.90;;;;;;5054619;28;20471;-75
2021/06/28 07:51:58;;;;;;;17.60;7.63;;;28.50;99.90;;;;;;5051004;28;20975;-75
2021/06/28 07:54:27;;;;;;;9.40;7.30;;;28.40;99.90;;;;;;5053336;28;20454;-75
2021/06/28 07:56:54;;;;;;;7.93;7.17;;;28.30;99.90;;;;;;5054612;28;21001;-75
2021/06/28 07:59:22;;;;;;;7.53;6.60;;;28.30;99.90;;;;;;5050107;28;20523;-75
2021/06/28 08:01:50;;;;;;;11.77;8.40;;;28.30;99.90;;;;;;5054363;28;20580;-75
2021/06/28 08:04:17;;;;;;;8.20;6.37;;;28.30;99.90;;;;;;5053373;28;20989;-74
2021/06/28 08:06:44;;;;;;;9.83;8.10;;;28.30;99.90;;;;;;5050979;28;20439;-76
2021/06/28 08:09:11;;;;;;;10.00;7.30;;;28.20;99.90;;;;;;5052457;28;20470;-75
2021/06/28 08:11:38;;;;;;;10.83;7.57;;;28.10;99.90;;;;;;5050643;28;20455;-74
2021/06/28 08:14:05;;;;;;;8.80;6.83;;;27.80;99.90;;;;;;5053318;28;20475;-76
2021/06/28 08:16:32;;;;;;;14.77;8.30;;;27.80;99.90;;;;;;5051087;28;20572;-76
2021/06/28 08:19:01;;;;;;;10.77;7.57;;;27.70;99.90;;;;;;5052912;28;20462;-74
2021/06/28 08:21:28;;;;;;;10.63;7.07;;;27.60;99.90;;;;;;5047745;28;20495;-75
2021/06/28 08:23:55;;;;;;;13.07;7.70;;;27.70;99.90;;;;;;5049537;28;20455;-75
2021/06/28 08:26:22;;;;;;;15.00;8.30;;;27.90;99.90;;;;;;5052680;28;20573;-75
2021/06/28 08:28:49;;;;;;;8.10;7.30;;;27.90;99.90;;;;;;5055280;28;20466;-75
2021/06/28 08:31:16;;;;;;;9.87;7.70;;;27.80;99.90;;;;;;5055663;28;20967;-75
2021/06/28 08:33:44;;;;;;;10.27;8.50;;;27.80;99.90;;;;;;5058446;28;20441;-74
2021/06/28 08:36:12;;;;;;;11.13;8.50;;;27.80;99.90;;;;;;5057979;28;20526;-74
2021/06/28 08:38:39;;;;;;;12.80;8.00;;;28.00;99.90;;;;;;5062034;28;20553;-75
2021/06/28 08:41:09;;;;;;;10.80;8.90;;;28.10;99.90;;;;;;5056082;28;20510;-75
2021/06/28 08:43:39;;;;;;;9.03;6.80;;;28.00;99.90;;;;;;5055448;28;20479;-75
2021/06/28 08:46:07;;;;;;;9.77;7.33;;;27.90;99.90;;;;;;5061763;28;20436;-74
2021/06/28 08:48:34;;;;;;;8.80;7.17;;;28.00;99.90;;;;;;5064381;28;20518;-75
2021/06/28 08:51:02;;;;;;;11.13;7.93;;;28.60;99.90;;;;;;5062024;28;20514;-75
2021/06/28 08:53:30;;;;;;;13.10;6.80;;;29.10;99.90;;;;;;5063155;28;20930;-75
2021/06/28 08:55:57;;;;;;;7.53;6.73;;;29.30;99.90;;;;;;5056579;28;20435;-75
2021/06/28 08:58:26;;;;;;;13.03;8.00;;;29.50;99.90;;;;;;5059491;28;20512;-75
2021/06/28 09:00:53;;;;;;;8.67;6.30;;;30.00;99.90;;;;;;5051084;28;20486;-75
2021/06/28 09:03:21;;;;;;;14.23;7.60;;;31.20;99.90;;;;;;5055549;28;20519;-75
2021/06/28 09:05:53;;;;;;;9.10;6.70;;;31.90;99.90;;;;;;5059754;28;20482;-77
2021/06/28 09:08:22;;;;;;;7.67;6.90;;;32.00;99.90;;;;;;5056822;28;20467;-74
2021/06/28 09:10:51;;;;;;;7.30;6.60;;;32.30;99.90;;;;;;5054846;28;20733;-74
2021/06/28 09:13:18;;;;;;;8.90;7.90;;;33.20;99.90;;;;;;5057300;28;20474;-75
2021/06/28 09:15:49;;;;;;;7.70;7.00;;;33.30;99.90;;;;;;5060586;28;20533;-75
2021/06/28 09:18:18;;;;;;;7.20;6.50;;;33.40;99.90;;;;;;5059460;28;20921;-75
2021/06/28 09:20:46;;;;;;;7.33;6.63;;;33.70;99.90;;;;;;5058087;28;20482;-74
2021/06/28 09:23:18;;;;;;;7.53;6.60;;;34.10;99.90;;;;;;5054591;28;20529;-75
2021/06/28 09:25:45;;;;;;;16.63;5.60;;;34.40;99.90;;;;;;5056707;28;20492;-74
2021/06/28 09:28:14;;;;;;;7.73;7.00;;;33.70;99.90;;;;;;5055185;28;20506;-75
2021/06/28 09:30:50;;;;;;;7.50;6.40;;;32.60;99.90;;;;;;5052613;28;20562;-75
2021/06/28 09:33:20;;;;;;;9.87;7.40;;;31.90;99.90;;;;;;5053791;28;20431;-75
2021/06/28 09:35:48;;;;;;;8.93;7.90;;;31.20;99.90;;;;;;5057957;28;20918;-76
2021/06/28 09:38:31;;;;;;;10.13;8.10;;;30.80;99.90;;;;;;5057325;28;20478;-75
2021/06/28 09:41:18;;;;;;;9.63;8.63;;;29.80;99.90;;;;;;5055180;28;21085;-75
2021/06/28 09:43:47;;;;;;;8.87;8.07;;;29.50;99.90;;;;;;5058341;28;20502;-76
2021/06/28 09:46:18;;;;;;;10.07;8.00;;;29.40;99.90;;;;;;5058468;28;20864;-75
2021/06/28 09:48:49;;;;;;;9.03;8.13;;;29.40;99.90;;;;;;5055568;28;20462;-73
2021/06/28 09:51:21;;;;;;;9.10;8.10;;;29.30;99.90;;;;;;5057272;28;20463;-75
2021/06/28 09:53:49;;;;;;;10.47;7.47;;;29.40;99.90;;;;;;5062835;28;20427;-75
2021/06/28 09:56:33;;;;;;;8.93;8.03;;;29.60;99.90;;;;;;5060534;28;20802;-75
2021/06/28 09:59:22;;;;;;;8.30;7.50;;;29.80;99.90;;;;;;5053383;28;20497;-74
2021/06/28 10:01:50;;;;;;;8.37;7.50;;;30.00;99.90;;;;;;5060448;28;20450;-74
2021/06/28 10:04:39;;;;;;;8.30;7.17;;;30.20;99.90;;;;;;5061534;28;20842;-75
2021/06/28 10:07:31;;;;;;;7.13;6.43;;;30.50;99.90;;;;;;5059040;28;20482;-75
2021/06/28 10:10:17;;;;;;;14.03;7.30;;;31.40;99.90;;;;;;5057225;28;21046;-75
2021/06/28 10:12:46;;;;;;;15.73;8.70;;;31.90;99.90;;;;;;5059267;28;20498;-75
2021/06/28 10:15:17;;;;;;;11.33;8.37;;;32.20;99.90;;;;;;5068154;28;20524;-76
2021/06/28 10:17:45;;;;;;;7.83;7.13;;;33.10;99.90;;;;;;5067732;28;20508;-76
2021/06/28 10:20:16;;;;;;;10.10;8.67;;;33.50;99.90;;;;;;5062164;28;20521;-77
2021/06/28 10:22:45;;;;;;;12.33;9.73;;;34.20;99.90;;;;;;5057385;28;20591;-76
2021/06/28 10:25:16;;;;;;;11.13;10.03;;;33.80;99.90;;;;;;5055879;28;20439;-76
2021/06/28 10:27:43;;;;;;;10.20;7.90;;;33.40;99.90;;;;;;5060657;28;21036;-74
2021/06/28 10:30:13;;;;;;;10.40;9.30;;;33.10;99.90;;;;;;5061874;28;20493;-76
2021/06/28 10:32:42;;;;;;;14.60;11.57;;;32.80;99.90;;;;;;5063058;28;20509;-75
2021/06/28 10:35:13;;;;;;;12.07;10.27;;;32.60;99.90;;;;;;5055033;28;20448;-75
2021/06/28 10:37:45;;;;;;;12.30;10.53;;;33.00;99.90;;;;;;5057596;28;20465;-73
2021/06/28 10:40:14;;;;;;;15.40;10.10;;;34.00;99.90;;;;;;5054972;28;20486;-76
2021/06/28 10:42:43;;;;;;;12.83;10.03;;;34.60;99.90;;;;;;5067429;28;20483;-76
2021/06/28 10:45:13;;;;;;;8.87;8.00;;;34.60;99.90;;;;;;5058919;28;20913;-76
2021/06/28 10:48:09;;;;;;;12.17;9.07;;;34.50;99.90;;;;;;5058618;28;20478;-75
2021/06/28 10:50:50;;;;;;;10.00;7.90;;;33.70;99.90;;;;;;5058887;28;20489;-76
2021/06/28 10:53:18;;;;;;;11.43;8.07;;;33.00;99.90;;;;;;5057703;28;20443;-74
2021/06/28 10:55:46;;;;;;;7.57;6.87;;;32.50;99.90;;;;;;5055104;28;20458;-75
2021/06/28 10:58:31;;;;;;;8.10;7.30;;;32.30;99.90;;;;;;5058971;28;20454;-75
2021/06/28 11:01:08;;;;;;;10.00;8.03;;;31.40;99.90;;;;;;5058240;28;20550;-75
2021/06/28 11:03:36;;;;;;;8.70;7.80;;;31.40;99.90;;;;;;5059981;28;20487;-73
2021/06/28 11:06:17;;;;;;;14.20;7.00;;;31.70;99.90;;;;;;5055849;28;20444;-76
2021/06/28 11:09:02;;;;;;;6.97;6.27;;;31.50;99.90;;;;;;5054487;28;20503;-75
2021/06/28 11:11:57;;;;;;;8.40;6.67;;;31.00;99.90;;;;;;5058973;28;20458;-76
2021/06/28 11:14:55;;;;;;;8.30;7.43;;;30.70;99.90;;;;;;5060032;28;20455;-75
2021/06/28 11:17:25;;;;;;;8.60;7.60;;;30.20;99.90;;;;;;5058235;28;20475;-76
2021/06/28 11:20:20;;;;;;;10.90;8.77;;;30.00;99.90;;;;;;5060199;28;20831;-74
2021/06/28 11:23:02;;;;;;;10.17;7.57;;;29.90;99.90;;;;;;5062465;28;20516;-74
2021/06/28 11:25:46;;;;;;;7.83;7.03;;;29.70;99.90;;;;;;5064309;28;20435;-76
2021/06/28 11:28:28;;;;;;;8.87;8.03;;;29.40;99.90;;;;;;5060052;28;20470;-75
2021/06/28 11:31:00;;;;;;;9.03;8.13;;;29.00;99.90;;;;;;5056858;28;20474;-75
2021/06/28 11:33:42;;;;;;;8.60;7.67;;;28.80;99.90;;;;;;5063310;28;20588;-75
2021/06/28 11:36:36;;;;;;;10.67;7.97;;;28.60;99.90;;;;;;5053290;28;20459;-75
2021/06/28 11:39:25;;;;;;;14.47;8.13;;;28.60;99.90;;;;;;5057130;28;20478;-76
2021/06/28 11:42:29;;;;;;;16.00;9.40;;;28.50;99.90;;;;;;5061190;28;20879;-75
2021/06/28 11:45:02;;;;;;;10.17;8.67;;;28.30;99.90;;;;;;5057252;28;20446;-74
2021/06/28 11:48:00;;;;;;;10.77;9.67;;;28.10;99.90;;;;;;5059149;28;20485;-74
2021/06/28 11:50:30;;;;;;;12.77;8.80;;;27.90;99.90;;;;;;5056375;28;20477;-74
2021/06/28 11:53:01;;;;;;;10.90;9.07;;;27.50;99.90;;;;;;5056768;28;20514;-75
2021/06/28 11:55:28;;;;;;;12.43;7.73;;;27.60;99.90;;;;;;5052291;28;20458;-75
2021/06/28 11:57:56;;;;;;;11.63;10.27;;;27.40;99.90;;;;;;5061340;28;20476;-75
2021/06/28 12:00:24;;;;;;;11.70;9.33;;;27.30;99.90;;;;;;5054903;28;20525;-74
2021/06/28 12:03:13;;;;;;;6.80;5.60;;;27.10;99.90;;;;;;5057983;28;20660;-75
2021/06/28 12:05:41;;;;;;;7.67;6.97;;;25.80;99.90;;;;;;5062504;28;20447;-75
2021/06/28 12:08:12;;;;;;;14.83;7.40;;;25.00;99.90;;;;;;5059268;28;20454;-75
2021/06/28 12:10:39;;;;;;;7.63;6.13;;;25.00;99.90;;;;;;5060092;28;20478;-75
2021/06/28 12:13:06;;;;;;;8.10;6.80;;;25.30;99.90;;;;;;5058954;28;20446;-75
2021/06/28 12:15:34;;;;;;;15.70;8.73;;;25.50;99.90;;;;;;5063811;28;20696;-75
2021/06/28 12:18:06;;;;;;;6.43;5.50;;;25.90;99.90;;;;;;5063678;28;20469;-75
2021/06/28 12:20:36;;;;;;;11.53;4.27;;;26.00;99.90;;;;;;5051527;28;20475;-75
2021/06/28 12:23:10;;;;;;;6.37;4.77;;;26.20;99.90;;;;;;5060478;28;20895;-75
2021/06/28 12:25:37;;;;;;;4.70;3.70;;;26.30;99.90;;;;;;5068644;28;20453;-77
2021/06/28 12:28:05;;;;;;;4.70;3.43;;;26.60;99.90;;;;;;5062895;28;20460;-75
2021/06/28 12:30:37;;;;;;;5.00;4.43;;;26.50;99.90;;;;;;5060417;28;20540;-74
2021/06/28 12:33:04;;;;;;;5.80;5.20;;;26.40;99.90;;;;;;5056721;28;20455;-75
2021/06/28 12:35:31;;;;;;;7.23;4.20;;;26.40;99.90;;;;;;5066898;28;20482;-76
2021/06/28 12:38:03;;;;;;;4.83;3.87;;;26.60;99.90;;;;;;5064940;28;20443;-75
2021/06/28 12:40:35;;;;;;;5.27;4.50;;;27.10;99.90;;;;;;5058992;28;20585;-76
2021/06/28 12:43:04;;;;;;;13.53;5.90;;;28.40;99.90;;;;;;5059284;28;20544;-76
2021/06/28 12:45:34;;;;;;;5.57;4.60;;;29.10;99.90;;;;;;5054978;28;20853;-75
2021/06/28 12:48:03;;;;;;;5.00;4.00;;;29.60;99.90;;;;;;5065568;28;20483;-76
2021/06/28 12:50:32;;;;;;;5.50;3.63;;;30.30;99.90;;;;;;5063656;28;20532;-77
2021/06/28 12:53:00;;;;;;;4.33;3.97;;;31.00;99.90;;;;;;5060658;28;20505;-75